createdAt,value
2019-02-11T00:02:29.731Z,98930.03
2019-02-11T00:06:32.287Z,98925.85
2019-02-11T00:10:34.820Z,98932.77
2019-02-11T00:14:37.361Z,98923.70
2019-02-11T00:18:39.776Z,98927.27
2019-02-11T00:22:42.300Z,98925.72
2019-02-11T00:26:49.028Z,98926.06
2019-02-11T00:30:51.528Z,98920.80
2019-02-11T00:34:53.926Z,98922.96
2019-02-11T00:38:56.419Z,98926.81
2019-02-11T00:42:58.836Z,98917.70
2019-02-11T00:47:01.535Z,98912.08
2019-02-11T00:51:04.104Z,98916.16
2019-02-11T00:55:07.235Z,98909.81
2019-02-11T00:59:09.799Z,98910.66
2019-02-11T01:03:12.296Z,98909.95
2019-02-11T01:07:14.704Z,98903.84
2019-02-11T01:11:17.197Z,98906.58
2019-02-11T01:15:20.910Z,98910.66
2019-02-11T01:19:23.420Z,98914.38
2019-02-11T01:23:25.939Z,98922.97
2019-02-11T01:27:28.409Z,98915.19
2019-02-11T01:31:30.862Z,98916.97
2019-02-11T01:35:34.963Z,98909.83
2019-02-11T01:39:37.582Z,98910.16
2019-02-11T01:43:40.295Z,98911.25
2019-02-11T01:47:43.091Z,98903.83
2019-02-11T01:51:45.809Z,98903.83
2019-02-11T01:55:48.254Z,98904.44
2019-02-11T01:59:51.065Z,98896.92
2019-02-11T02:03:53.512Z,98892.13
2019-02-11T02:07:56.038Z,98888.19
2019-02-11T02:11:58.410Z,98885.80
2019-02-11T02:16:00.998Z,98875.28
2019-02-11T02:20:03.467Z,98874.67
2019-02-11T02:24:05.980Z,98879.08
2019-02-11T02:28:08.523Z,98872.17
2019-02-11T02:32:11.097Z,98865.37
2019-02-11T02:36:13.635Z,98865.13
2019-02-11T02:40:16.143Z,98867.25
2019-02-11T02:44:18.567Z,98865.46
2019-02-11T02:48:21.111Z,98860.67
2019-02-11T02:52:23.522Z,98863.30
2019-02-11T02:56:25.990Z,98854.95
2019-02-11T03:00:28.799Z,98856.39
2019-02-11T03:04:31.337Z,98861.05
2019-02-11T03:08:33.754Z,98858.55
2019-02-11T03:12:36.293Z,98855.92
2019-02-11T03:16:38.730Z,98850.53
2019-02-11T03:20:41.306Z,98840.02
2019-02-11T03:24:43.856Z,98841.46
2019-02-11T03:28:46.351Z,98832.73
2019-02-11T03:32:48.764Z,98842.41
2019-02-11T03:36:51.284Z,98838.09
2019-02-11T03:40:53.844Z,98844.33
2019-02-11T03:44:56.443Z,98842.78
2019-02-11T03:48:58.881Z,98837.99
2019-02-11T03:53:01.483Z,98831.99
2019-02-11T03:57:04.079Z,98832.26
2019-02-11T04:01:08.589Z,98828.31
2019-02-11T04:05:11.212Z,98817.20
2019-02-11T04:09:13.738Z,98820.77
2019-02-11T04:13:16.404Z,98815.98
2019-02-11T04:17:18.947Z,98814.34
2019-02-11T04:21:21.378Z,98805.47
2019-02-11T04:25:25.545Z,98799.27
2019-02-11T04:29:27.981Z,98805.23
2019-02-11T04:33:30.698Z,98799.27
2019-02-11T04:37:33.128Z,98797.95
2019-02-11T04:41:35.805Z,98789.45
2019-02-11T04:45:38.360Z,98788.50
2019-02-11T04:49:40.888Z,98784.66
2019-02-11T04:53:43.300Z,98787.30
2019-02-11T04:57:45.800Z,98790.30
2019-02-11T05:01:48.698Z,98777.39
2019-02-11T05:05:51.219Z,98781.10
2019-02-11T05:09:53.653Z,98785.28
2019-02-11T05:13:56.242Z,98784.10
2019-02-11T05:17:58.783Z,98779.09
2019-02-11T05:22:01.255Z,98787.30
2019-02-11T05:26:03.787Z,98787.92
2019-02-11T05:30:06.729Z,98781.45
2019-02-11T05:34:09.197Z,98780.85
2019-02-11T05:38:11.820Z,98778.83
2019-02-11T05:42:14.301Z,98777.39
2019-02-11T05:46:16.824Z,98773.58
2019-02-11T05:50:19.244Z,98772.61
2019-02-11T05:54:21.734Z,98769.42
2019-02-11T05:58:24.226Z,98767.03
2019-02-11T06:02:26.807Z,98777.78
2019-02-11T06:06:30.708Z,98785.30
2019-02-11T06:10:33.358Z,98782.67
2019-02-11T06:14:35.750Z,98781.13
2019-02-11T06:18:38.253Z,98781.22
2019-02-11T06:22:42.044Z,98775.87
2019-02-11T06:26:44.535Z,98781.59
2019-02-11T06:30:47.076Z,98781.94
2019-02-11T06:34:49.674Z,98776.34
2019-02-11T06:38:52.079Z,98775.50
2019-02-11T06:42:54.743Z,98776.45
2019-02-11T06:46:57.150Z,98772.17
2019-02-11T06:50:59.839Z,98768.56
2019-02-11T06:55:02.254Z,98762.36
2019-02-11T06:59:04.934Z,98765.09
2019-02-11T07:03:07.363Z,98764.63
2019-02-11T07:07:09.854Z,98758.28
2019-02-11T07:11:13.656Z,98762.59
2019-02-11T07:15:22.193Z,98755.09
2019-02-11T07:19:20.416Z,98748.38
2019-02-11T07:23:23.014Z,98743.36
2019-02-11T07:27:25.438Z,98728.91
2019-02-11T07:31:27.982Z,98736.68
2019-02-11T07:35:30.425Z,98731.43
2019-02-11T07:39:32.921Z,98729.75
2019-02-11T07:43:40.790Z,98730.95
2019-02-11T07:47:43.423Z,98737.75
2019-02-11T07:51:46.053Z,98740.75
2019-02-11T07:55:48.556Z,98737.64
2019-02-11T07:59:50.984Z,98730.09
2019-02-11T08:03:53.585Z,98729.74
2019-02-11T08:07:55.994Z,98725.66
2019-02-11T08:12:00.336Z,98720.77
2019-02-11T08:16:03.064Z,98713.95
2019-02-11T08:20:06.696Z,98707.61
2019-02-11T08:24:09.114Z,98706.67
2019-02-11T08:28:19.216Z,98706.19
2019-02-11T08:32:15.864Z,98708.56
2019-02-11T08:36:18.510Z,98718.36
2019-02-11T08:40:20.983Z,98725.17
2019-02-11T08:44:23.700Z,98735.46
2019-02-11T08:48:26.211Z,98736.41
2019-02-11T08:52:28.788Z,98742.50
2019-02-11T08:56:31.208Z,98734.39
2019-02-11T09:00:33.707Z,98735.34
2019-02-11T09:04:36.275Z,98727.47
2019-02-11T09:08:38.925Z,98723.75
2019-02-11T09:12:41.339Z,98740.47
2019-02-11T09:16:43.926Z,98748.97
2019-02-11T09:20:46.739Z,98752.07
2019-02-11T09:24:49.268Z,98756.02
2019-02-11T09:28:51.740Z,98756.61
2019-02-11T09:32:54.360Z,98738.10
2019-02-11T09:36:56.988Z,98733.69
2019-02-11T09:40:59.496Z,98724.02
2019-02-11T09:45:06.390Z,98719.00
2019-02-11T09:49:08.904Z,98721.72
2019-02-11T09:53:11.464Z,98717.78
2019-02-11T09:57:13.960Z,98704.77
2019-02-11T10:01:16.404Z,98692.47
2019-02-11T10:05:18.936Z,98687.30
2019-02-11T10:09:21.518Z,98688.63
2019-02-11T10:13:24.043Z,98685.39
2019-02-11T10:17:29.789Z,98685.39
2019-02-11T10:21:31.356Z,98679.41
2019-02-11T10:25:35.323Z,98681.07
2019-02-11T10:29:38.788Z,98684.88
2019-02-11T10:33:42.079Z,98700.67
2019-02-11T10:37:45.006Z,98695.66
2019-02-11T10:41:49.087Z,98698.29
2019-02-11T10:45:51.708Z,98712.03
2019-02-11T10:49:54.334Z,98727.47
2019-02-11T10:53:57.524Z,98735.46
2019-02-11T10:58:00.424Z,98737.98
2019-02-11T11:02:03.084Z,98737.84
2019-02-11T11:06:05.835Z,98739.30
2019-02-11T11:10:12.862Z,98734.52
2019-02-11T11:14:16.179Z,98736.42
2019-02-11T11:18:18.803Z,98736.16
2019-02-11T11:22:21.439Z,98728.52
2019-02-11T11:26:24.013Z,98734.52
2019-02-11T11:30:27.094Z,98733.90
2019-02-11T11:34:30.179Z,98735.22
2019-02-11T11:38:32.588Z,98734.98
2019-02-11T11:42:35.415Z,98735.95
2019-02-11T11:46:46.775Z,98740.23
2019-02-11T11:50:43.333Z,98734.86
2019-02-11T11:54:47.103Z,98731.61
2019-02-11T11:58:50.511Z,98726.94
2019-02-11T12:03:04.176Z,98717.63
2019-02-11T12:06:58.527Z,98722.39
2019-02-11T12:11:01.968Z,98727.89
2019-02-11T12:15:05.062Z,98717.38
2019-02-11T12:19:07.507Z,98722.05
2019-02-11T12:23:10.032Z,98722.05
2019-02-11T12:27:12.493Z,98717.63
2019-02-11T12:31:15.258Z,98716.63
2019-02-11T12:35:17.710Z,98706.82
2019-02-11T12:39:20.231Z,98699.38
2019-02-11T12:43:23.005Z,98700.92
2019-02-11T12:47:25.680Z,98701.98
2019-02-11T12:51:28.095Z,98697.14
2019-02-11T12:55:30.679Z,98711.47
2019-02-11T12:59:33.236Z,98705.95
2019-02-11T13:03:36.003Z,98705.25
2019-02-11T13:07:38.533Z,98717.44
2019-02-11T13:11:42.127Z,98717.94
2019-02-11T13:15:59.908Z,98720.08
2019-02-11T13:20:06.709Z,98729.53
2019-02-11T13:23:53.428Z,98740.66
2019-02-11T13:27:56.101Z,98747.88
2019-02-11T13:31:58.826Z,98741.30
2019-02-11T13:36:01.348Z,98747.88
2019-02-11T13:40:04.017Z,98742.86
2019-02-11T13:44:11.379Z,98742.25
2019-02-11T13:59:27.569Z,98723.72
2019-02-11T14:03:30.249Z,98735.69
2019-02-11T14:07:32.981Z,98734.63
2019-02-11T14:11:35.716Z,98750.27
2019-02-11T14:15:38.263Z,98752.91
2019-02-11T14:19:40.686Z,98761.13
2019-02-11T14:23:43.552Z,98766.64
2019-02-11T14:27:46.028Z,98774.42
2019-02-11T14:31:48.600Z,98776.82
2019-02-11T14:35:51.801Z,98772.64
2019-02-11T14:39:54.743Z,98772.88
2019-02-11T14:43:57.292Z,98774.91
2019-02-11T14:47:59.940Z,98781.00
2019-02-11T14:52:04.568Z,98781.72
2019-02-11T14:56:07.281Z,98783.74
2019-02-11T15:00:15.286Z,98789.47
2019-02-11T15:04:17.892Z,98782.77
2019-02-11T15:08:20.311Z,98770.71
2019-02-11T15:12:23.071Z,98772.41
2019-02-11T15:16:25.432Z,98767.02
2019-02-11T15:20:28.154Z,98766.06
2019-02-11T15:24:31.367Z,98772.27
2019-02-11T15:28:36.938Z,98776.92
2019-02-11T15:32:39.560Z,98771.66
2019-02-11T15:36:42.006Z,98776.11
2019-02-11T15:40:44.746Z,98791.03
2019-02-11T15:44:47.464Z,98798.55
2019-02-11T15:48:49.852Z,98799.62
2019-02-11T15:52:52.436Z,98799.25
2019-02-11T15:56:54.881Z,98806.29
2019-02-11T16:00:57.487Z,98816.23
2019-02-11T16:05:02.218Z,98808.34
2019-02-11T16:09:05.314Z,98812.52
2019-02-11T16:13:08.162Z,98820.03
2019-02-11T16:17:10.690Z,98819.42
2019-02-11T16:21:13.093Z,98832.22
2019-02-11T16:25:16.042Z,98825.52
2019-02-11T16:29:18.570Z,98825.99
2019-02-11T16:33:21.075Z,98825.89
2019-02-11T16:37:23.464Z,98828.98
2019-02-11T16:41:26.196Z,98820.13
2019-02-11T16:45:28.672Z,98825.38
2019-02-11T16:49:31.182Z,98831.48
2019-02-11T16:53:33.696Z,98831.98
2019-02-11T16:57:36.262Z,98825.05
2019-02-11T17:01:38.655Z,98823.73
2019-02-11T17:05:41.141Z,98824.44
2019-02-11T17:09:43.542Z,98829.22
2019-02-11T17:13:46.118Z,98829.69
2019-02-11T17:17:48.607Z,98826.59
2019-02-11T17:21:51.093Z,98822.66
2019-02-11T17:25:53.516Z,98827.91
2019-02-11T17:29:55.977Z,98825.38
2019-02-11T17:33:59.578Z,98836.02
2019-02-11T17:38:03.166Z,98835.17
2019-02-11T17:42:05.991Z,98844.27
2019-02-11T17:46:08.693Z,98837.44
2019-02-11T17:50:11.953Z,98843.06
2019-02-11T17:54:14.817Z,98843.53
2019-02-11T17:58:17.321Z,98838.75
2019-02-11T18:02:19.851Z,98843.53
2019-02-11T18:06:22.249Z,98838.65
2019-02-11T18:10:24.777Z,98833.86
2019-02-11T18:14:27.150Z,98839.12
2019-02-11T18:18:29.671Z,98845.21
2019-02-11T18:22:32.108Z,98839.12
2019-02-11T18:26:34.666Z,98846.53
2019-02-11T18:30:37.311Z,98853.47
2019-02-11T18:34:40.027Z,98856.56
2019-02-11T18:38:42.412Z,98860.50
2019-02-11T18:42:45.151Z,98853.94
2019-02-11T18:46:49.487Z,98858.59
2019-02-11T18:50:51.875Z,98868.72
2019-02-11T18:54:54.300Z,98866.09
2019-02-11T18:58:56.866Z,98874.95
2019-02-11T19:02:59.434Z,98876.83
2019-02-11T19:07:01.940Z,98875.98
2019-02-11T19:11:04.375Z,98881.24
2019-02-11T19:15:08.313Z,98877.81
2019-02-11T19:19:10.866Z,98884.84
2019-02-11T19:23:13.649Z,98886.25
2019-02-11T19:27:16.039Z,98883.63
2019-02-11T19:31:18.624Z,98880.29
2019-02-11T19:35:21.744Z,98890.80
2019-02-11T19:39:24.179Z,98896.52
2019-02-11T19:43:26.569Z,98895.11
2019-02-11T19:47:30.490Z,98895.11
2019-02-11T19:51:34.233Z,98897.23
2019-02-11T19:55:37.804Z,98893.30
2019-02-11T19:59:41.654Z,98904.30
2019-02-11T20:03:45.205Z,98902.02
2019-02-11T20:07:47.979Z,98904.64
2019-02-11T20:11:50.381Z,98907.39
2019-02-11T20:15:52.970Z,98913.49
2019-02-11T20:20:00.412Z,98917.44
2019-02-11T20:23:59.572Z,98920.53
2019-02-11T20:28:02.061Z,98936.63
2019-02-11T20:32:04.740Z,98928.50
2019-02-11T20:36:07.359Z,98940.23
2019-02-11T20:40:12.672Z,98942.48
2019-02-11T20:44:15.132Z,98945.02
2019-02-11T20:48:17.592Z,98948.20
2019-02-11T20:52:20.050Z,98958.14
2019-02-11T20:56:22.435Z,98959.68
2019-02-11T21:00:25.545Z,98968.88
2019-02-11T21:04:28.044Z,98971.13
2019-02-11T21:08:30.521Z,98976.16
2019-02-11T21:12:32.890Z,98972.09
2019-02-11T21:16:35.370Z,98972.93
2019-02-11T21:20:39.492Z,98969.96
2019-02-11T21:24:41.988Z,98973.39
2019-02-11T21:28:44.367Z,98974.24
2019-02-11T21:32:46.968Z,98968.05
2019-02-11T21:36:49.502Z,98971.74
2019-02-11T21:40:52.695Z,98984.28
2019-02-11T21:44:55.078Z,98976.64
2019-02-11T21:48:57.532Z,98984.18
2019-02-11T21:52:59.884Z,98993.94
2019-02-11T21:57:02.581Z,98999.94
2019-02-11T22:01:06.688Z,98991.09
2019-02-11T22:05:09.280Z,99002.91
2019-02-11T22:09:11.765Z,99005.53
2019-02-11T22:13:14.206Z,99013.32
2019-02-11T22:17:16.564Z,99009.61
2019-02-11T22:21:19.001Z,99019.05
2019-02-11T22:25:21.394Z,99022.89
2019-02-11T22:29:23.852Z,99026.83
2019-02-11T22:33:26.241Z,99040.20
2019-02-11T22:37:28.944Z,99033.98
2019-02-11T22:41:31.453Z,99049.03
2019-02-11T22:45:33.968Z,99050.34
2019-02-11T22:49:36.366Z,99057.03
2019-02-11T22:53:38.917Z,99060.70
2019-02-11T22:57:41.345Z,99066.42
2019-02-11T23:01:43.911Z,99076.58
2019-02-11T23:05:46.442Z,99075.83
2019-02-11T23:09:49.118Z,99078.59
2019-02-11T23:13:51.505Z,99084.30
2019-02-11T23:17:53.937Z,99089.69
2019-02-11T23:21:57.018Z,99093.25
2019-02-11T23:25:59.808Z,99089.06
2019-02-11T23:30:02.168Z,99098.56
2019-02-11T23:34:04.857Z,99097.84
2019-02-11T23:38:07.584Z,99108.09
2019-02-11T23:42:10.322Z,99107.84
2019-02-11T23:46:13.178Z,99114.72
2019-02-11T23:50:15.926Z,99117.18
2019-02-11T23:54:18.279Z,99119.92
2019-02-11T23:58:20.769Z,99125.39
